sensor_id;sensor_type;location;lat;lon;timestamp;P1;durP1;ratioP1;P2;durP2;ratioP2
27412;SDS011;14871;52.702;5.230;2023-07-31T00:00:27;1.67;;;0.45;;
27412;SDS011;14871;52.702;5.230;2023-07-31T00:02:53;1.85;;;0.60;;
27412;SDS011;14871;52.702;5.230;2023-07-31T00:05:19;2.17;;;0.50;;
27412;SDS011;14871;52.702;5.230;2023-07-31T00:07:45;2.85;;;0.73;;
27412;SDS011;14871;52.702;5.230;2023-07-31T00:10:11;1.17;;;0.60;;
27412;SDS011;14871;52.702;5.230;2023-07-31T00:12:37;1.17;;;0.70;;
27412;SDS011;14871;52.702;5.230;2023-07-31T00:15:04;2.33;;;0.70;;
27412;SDS011;14871;52.702;5.230;2023-07-31T00:17:30;1.85;;;0.70;;
27412;SDS011;14871;52.702;5.230;2023-07-31T00:19:55;3.03;;;1.13;;
27412;SDS011;14871;52.702;5.230;2023-07-31T00:22:21;2.78;;;0.80;;
27412;SDS011;14871;52.702;5.230;2023-07-31T00:24:47;2.97;;;0.95;;
27412;SDS011;14871;52.702;5.230;2023-07-31T00:27:12;4.60;;;1.48;;
27412;SDS011;14871;52.702;5.230;2023-07-31T00:29:38;5.00;;;1.05;;
27412;SDS011;14871;52.702;5.230;2023-07-31T00:32:04;3.40;;;1.00;;
27412;SDS011;14871;52.702;5.230;2023-07-31T00:34:30;5.30;;;1.20;;
27412;SDS011;14871;52.702;5.230;2023-07-31T00:36:55;5.10;;;1.40;;
27412;SDS011;14871;52.702;5.230;2023-07-31T00:39:21;6.13;;;1.58;;
27412;SDS011;14871;52.702;5.230;2023-07-31T00:41:46;5.78;;;1.60;;
27412;SDS011;14871;52.702;5.230;2023-07-31T00:44:12;4.00;;;1.30;;
27412;SDS011;14871;52.702;5.230;2023-07-31T00:46:37;4.22;;;1.20;;
27412;SDS011;14871;52.702;5.230;2023-07-31T00:49:03;3.17;;;1.15;;
27412;SDS011;14871;52.702;5.230;2023-07-31T00:51:30;5.40;;;1.17;;
27412;SDS011;14871;52.702;5.230;2023-07-31T00:53:56;3.88;;;0.82;;
27412;SDS011;14871;52.702;5.230;2023-07-31T00:56:22;4.47;;;0.90;;
27412;SDS011;14871;52.702;5.230;2023-07-31T00:58:48;1.92;;;0.60;;
27412;SDS011;14871;52.702;5.230;2023-07-31T01:01:14;2.92;;;0.90;;
27412;SDS011;14871;52.702;5.230;2023-07-31T01:03:40;1.40;;;0.80;;
27412;SDS011;14871;52.702;5.230;2023-07-31T01:06:17;3.13;;;1.35;;
27412;SDS011;14871;52.702;5.230;2023-07-31T01:09:02;6.70;;;0.90;;
27412;SDS011;14871;52.702;5.230;2023-07-31T01:11:33;2.97;;;1.15;;
27412;SDS011;14871;52.702;5.230;2023-07-31T01:14:03;6.03;;;1.20;;
27412;SDS011;14871;52.702;5.230;2023-07-31T01:16:29;7.03;;;1.48;;
27412;SDS011;14871;52.702;5.230;2023-07-31T01:18:55;5.78;;;1.40;;
27412;SDS011;14871;52.702;5.230;2023-07-31T01:26:34;6.13;;;1.90;;
27412;SDS011;14871;52.702;5.230;2023-07-31T01:29:03;8.77;;;2.38;;
27412;SDS011;14871;52.702;5.230;2023-07-31T01:31:34;9.70;;;2.85;;
27412;SDS011;14871;52.702;5.230;2023-07-31T01:34:03;9.20;;;2.88;;
27412;SDS011;14871;52.702;5.230;2023-07-31T01:36:32;9.32;;;3.20;;
27412;SDS011;14871;52.702;5.230;2023-07-31T01:39:01;9.85;;;3.80;;
27412;SDS011;14871;52.702;5.230;2023-07-31T01:41:27;12.00;;;3.65;;
27412;SDS011;14871;52.702;5.230;2023-07-31T01:43:53;13.88;;;4.00;;
27412;SDS011;14871;52.702;5.230;2023-07-31T01:46:18;13.25;;;5.15;;
27412;SDS011;14871;52.702;5.230;2023-07-31T01:48:44;9.88;;;4.75;;
27412;SDS011;14871;52.702;5.230;2023-07-31T01:51:10;12.85;;;4.20;;
27412;SDS011;14871;52.702;5.230;2023-07-31T01:53:35;11.88;;;4.07;;
27412;SDS011;14871;52.702;5.230;2023-07-31T01:56:01;13.10;;;4.50;;
27412;SDS011;14871;52.702;5.230;2023-07-31T01:58:26;11.60;;;4.55;;
27412;SDS011;14871;52.702;5.230;2023-07-31T02:00:52;15.18;;;4.63;;
27412;SDS011;14871;52.702;5.230;2023-07-31T02:03:18;18.83;;;5.32;;
27412;SDS011;14871;52.702;5.230;2023-07-31T02:05:44;14.35;;;5.05;;
27412;SDS011;14871;52.702;5.230;2023-07-31T02:08:10;8.95;;;4.22;;
27412;SDS011;14871;52.702;5.230;2023-07-31T02:10:36;16.00;;;4.90;;
27412;SDS011;14871;52.702;5.230;2023-07-31T02:13:01;16.10;;;5.13;;
27412;SDS011;14871;52.702;5.230;2023-07-31T02:15:29;18.90;;;5.30;;
27412;SDS011;14871;52.702;5.230;2023-07-31T02:17:54;21.88;;;5.55;;
27412;SDS011;14871;52.702;5.230;2023-07-31T02:20:20;23.75;;;5.28;;
27412;SDS011;14871;52.702;5.230;2023-07-31T02:22:46;19.52;;;6.03;;
27412;SDS011;14871;52.702;5.230;2023-07-31T02:25:11;23.00;;;5.45;;
27412;SDS011;14871;52.702;5.230;2023-07-31T02:27:37;22.10;;;6.40;;
27412;SDS011;14871;52.702;5.230;2023-07-31T02:30:03;16.98;;;5.63;;
27412;SDS011;14871;52.702;5.230;2023-07-31T02:32:28;16.58;;;5.82;;
27412;SDS011;14871;52.702;5.230;2023-07-31T02:34:54;14.57;;;5.22;;
27412;SDS011;14871;52.702;5.230;2023-07-31T02:37:19;15.48;;;6.00;;
27412;SDS011;14871;52.702;5.230;2023-07-31T02:39:45;20.45;;;5.45;;
27412;SDS011;14871;52.702;5.230;2023-07-31T02:42:11;15.63;;;5.65;;
27412;SDS011;14871;52.702;5.230;2023-07-31T02:44:36;15.57;;;5.68;;
27412;SDS011;14871;52.702;5.230;2023-07-31T02:47:02;16.20;;;5.03;;
27412;SDS011;14871;52.702;5.230;2023-07-31T02:49:28;9.77;;;4.93;;
27412;SDS011;14871;52.702;5.230;2023-07-31T02:51:53;12.75;;;4.85;;
27412;SDS011;14871;52.702;5.230;2023-07-31T02:54:19;14.65;;;4.35;;
27412;SDS011;14871;52.702;5.230;2023-07-31T02:56:46;15.75;;;5.47;;
27412;SDS011;14871;52.702;5.230;2023-07-31T02:59:12;16.35;;;5.82;;
27412;SDS011;14871;52.702;5.230;2023-07-31T03:01:38;24.20;;;6.85;;
27412;SDS011;14871;52.702;5.230;2023-07-31T03:04:03;19.40;;;6.63;;
27412;SDS011;14871;52.702;5.230;2023-07-31T03:06:29;18.65;;;7.72;;
27412;SDS011;14871;52.702;5.230;2023-07-31T03:08:55;31.33;;;8.30;;
27412;SDS011;14871;52.702;5.230;2023-07-31T03:11:21;23.90;;;7.32;;
27412;SDS011;14871;52.702;5.230;2023-07-31T03:13:46;23.58;;;8.00;;
27412;SDS011;14871;52.702;5.230;2023-07-31T03:16:12;20.00;;;7.40;;
27412;SDS011;14871;52.702;5.230;2023-07-31T03:18:38;21.35;;;8.00;;
27412;SDS011;14871;52.702;5.230;2023-07-31T03:21:04;25.85;;;7.95;;
27412;SDS011;14871;52.702;5.230;2023-07-31T03:23:30;23.73;;;8.13;;
27412;SDS011;14871;52.702;5.230;2023-07-31T03:25:59;24.40;;;7.18;;
27412;SDS011;14871;52.702;5.230;2023-07-31T03:28:25;28.08;;;7.82;;
27412;SDS011;14871;52.702;5.230;2023-07-31T03:30:51;23.92;;;6.95;;
27412;SDS011;14871;52.702;5.230;2023-07-31T03:33:17;21.42;;;8.20;;
27412;SDS011;14871;52.702;5.230;2023-07-31T03:35:43;24.92;;;7.85;;
27412;SDS011;14871;52.702;5.230;2023-07-31T03:38:09;24.67;;;8.10;;
27412;SDS011;14871;52.702;5.230;2023-07-31T03:40:34;31.70;;;7.72;;
27412;SDS011;14871;52.702;5.230;2023-07-31T03:43:00;26.25;;;8.45;;
27412;SDS011;14871;52.702;5.230;2023-07-31T03:45:25;27.40;;;8.32;;
27412;SDS011;14871;52.702;5.230;2023-07-31T03:47:51;25.77;;;8.25;;
27412;SDS011;14871;52.702;5.230;2023-07-31T03:50:17;22.85;;;7.68;;
27412;SDS011;14871;52.702;5.230;2023-07-31T03:52:42;25.00;;;7.05;;
27412;SDS011;14871;52.702;5.230;2023-07-31T03:55:08;24.67;;;6.88;;
27412;SDS011;14871;52.702;5.230;2023-07-31T03:57:33;28.48;;;8.95;;
27412;SDS011;14871;52.702;5.230;2023-07-31T03:59:59;28.77;;;8.13;;
27412;SDS011;14871;52.702;5.230;2023-07-31T04:02:25;23.63;;;6.50;;
27412;SDS011;14871;52.702;5.230;2023-07-31T04:04:50;29.67;;;8.40;;
27412;SDS011;14871;52.702;5.230;2023-07-31T04:07:16;21.35;;;7.35;;
27412;SDS011;14871;52.702;5.230;2023-07-31T04:09:41;28.67;;;8.15;;
27412;SDS011;14871;52.702;5.230;2023-07-31T04:12:07;26.98;;;7.63;;
27412;SDS011;14871;52.702;5.230;2023-07-31T04:14:33;21.15;;;6.55;;
27412;SDS011;14871;52.702;5.230;2023-07-31T04:16:58;23.65;;;7.25;;
27412;SDS011;14871;52.702;5.230;2023-07-31T04:19:24;25.20;;;6.85;;
27412;SDS011;14871;52.702;5.230;2023-07-31T04:21:49;24.55;;;7.40;;
27412;SDS011;14871;52.702;5.230;2023-07-31T04:24:15;23.33;;;7.43;;
27412;SDS011;14871;52.702;5.230;2023-07-31T04:26:47;26.83;;;7.35;;
27412;SDS011;14871;52.702;5.230;2023-07-31T04:29:12;31.17;;;7.40;;
27412;SDS011;14871;52.702;5.230;2023-07-31T04:31:38;25.00;;;9.50;;
27412;SDS011;14871;52.702;5.230;2023-07-31T04:34:03;26.63;;;8.73;;
27412;SDS011;14871;52.702;5.230;2023-07-31T04:36:29;28.20;;;8.80;;
27412;SDS011;14871;52.702;5.230;2023-07-31T04:38:55;27.08;;;8.02;;
27412;SDS011;14871;52.702;5.230;2023-07-31T04:41:20;19.60;;;6.88;;
27412;SDS011;14871;52.702;5.230;2023-07-31T04:43:46;21.95;;;7.72;;
27412;SDS011;14871;52.702;5.230;2023-07-31T04:46:12;20.90;;;7.38;;
27412;SDS011;14871;52.702;5.230;2023-07-31T04:48:37;24.77;;;7.88;;
27412;SDS011;14871;52.702;5.230;2023-07-31T04:51:03;25.38;;;7.53;;
27412;SDS011;14871;52.702;5.230;2023-07-31T04:53:28;25.02;;;8.20;;
27412;SDS011;14871;52.702;5.230;2023-07-31T04:55:54;21.38;;;7.70;;
27412;SDS011;14871;52.702;5.230;2023-07-31T04:58:20;26.35;;;6.68;;
27412;SDS011;14871;52.702;5.230;2023-07-31T05:00:45;29.05;;;8.02;;
27412;SDS011;14871;52.702;5.230;2023-07-31T05:03:11;28.17;;;7.93;;
27412;SDS011;14871;52.702;5.230;2023-07-31T05:05:36;20.38;;;7.28;;
27412;SDS011;14871;52.702;5.230;2023-07-31T05:08:02;21.17;;;7.25;;
27412;SDS011;14871;52.702;5.230;2023-07-31T05:10:27;23.02;;;7.35;;
27412;SDS011;14871;52.702;5.230;2023-07-31T05:12:53;25.13;;;7.28;;
27412;SDS011;14871;52.702;5.230;2023-07-31T05:15:19;20.65;;;7.18;;
27412;SDS011;14871;52.702;5.230;2023-07-31T05:17:44;15.85;;;6.90;;
27412;SDS011;14871;52.702;5.230;2023-07-31T05:20:10;19.92;;;6.70;;
27412;SDS011;14871;52.702;5.230;2023-07-31T05:22:36;19.63;;;7.53;;
27412;SDS011;14871;52.702;5.230;2023-07-31T05:25:01;20.60;;;6.25;;
27412;SDS011;14871;52.702;5.230;2023-07-31T05:27:27;21.70;;;6.25;;
27412;SDS011;14871;52.702;5.230;2023-07-31T05:29:52;18.52;;;5.95;;
27412;SDS011;14871;52.702;5.230;2023-07-31T05:32:18;19.92;;;5.68;;
27412;SDS011;14871;52.702;5.230;2023-07-31T05:34:44;15.95;;;5.32;;
27412;SDS011;14871;52.702;5.230;2023-07-31T05:37:10;15.63;;;4.22;;
27412;SDS011;14871;52.702;5.230;2023-07-31T05:39:36;14.95;;;4.03;;
27412;SDS011;14871;52.702;5.230;2023-07-31T05:42:02;10.93;;;3.40;;
27412;SDS011;14871;52.702;5.230;2023-07-31T05:44:28;7.97;;;2.88;;
27412;SDS011;14871;52.702;5.230;2023-07-31T05:46:53;7.78;;;2.90;;
27412;SDS011;14871;52.702;5.230;2023-07-31T05:49:19;8.40;;;3.35;;
27412;SDS011;14871;52.702;5.230;2023-07-31T05:51:44;6.53;;;2.75;;
27412;SDS011;14871;52.702;5.230;2023-07-31T05:54:10;9.27;;;2.92;;
27412;SDS011;14871;52.702;5.230;2023-07-31T05:56:35;8.88;;;2.97;;
27412;SDS011;14871;52.702;5.230;2023-07-31T05:59:01;5.53;;;2.40;;
27412;SDS011;14871;52.702;5.230;2023-07-31T06:01:27;6.20;;;2.40;;
27412;SDS011;14871;52.702;5.230;2023-07-31T06:03:53;7.25;;;1.90;;
27412;SDS011;14871;52.702;5.230;2023-07-31T06:06:19;3.50;;;1.67;;
27412;SDS011;14871;52.702;5.230;2023-07-31T06:08:45;3.85;;;1.77;;
27412;SDS011;14871;52.702;5.230;2023-07-31T06:11:11;4.28;;;1.67;;
27412;SDS011;14871;52.702;5.230;2023-07-31T06:13:37;3.15;;;1.23;;
27412;SDS011;14871;52.702;5.230;2023-07-31T06:16:02;2.63;;;1.00;;
27412;SDS011;14871;52.702;5.230;2023-07-31T06:18:32;4.00;;;1.10;;
27412;SDS011;14871;52.702;5.230;2023-07-31T06:20:58;3.53;;;1.00;;
27412;SDS011;14871;52.702;5.230;2023-07-31T06:23:23;3.47;;;1.05;;
27412;SDS011;14871;52.702;5.230;2023-07-31T06:25:49;3.03;;;0.73;;
27412;SDS011;14871;52.702;5.230;2023-07-31T06:28:14;3.78;;;0.63;;
27412;SDS011;14871;52.702;5.230;2023-07-31T06:30:40;1.48;;;0.50;;
27412;SDS011;14871;52.702;5.230;2023-07-31T06:33:06;1.35;;;0.60;;
27412;SDS011;14871;52.702;5.230;2023-07-31T06:35:31;0.75;;;0.50;;
27412;SDS011;14871;52.702;5.230;2023-07-31T06:37:57;3.22;;;0.63;;
27412;SDS011;14871;52.702;5.230;2023-07-31T06:40:22;2.47;;;0.50;;
27412;SDS011;14871;52.702;5.230;2023-07-31T06:42:48;2.72;;;0.60;;
27412;SDS011;14871;52.702;5.230;2023-07-31T06:45:13;2.15;;;0.65;;
27412;SDS011;14871;52.702;5.230;2023-07-31T06:47:39;3.63;;;0.77;;
27412;SDS011;14871;52.702;5.230;2023-07-31T06:50:05;1.25;;;0.60;;
27412;SDS011;14871;52.702;5.230;2023-07-31T06:52:30;3.28;;;0.80;;
27412;SDS011;14871;52.702;5.230;2023-07-31T06:55:03;1.95;;;0.68;;
27412;SDS011;14871;52.702;5.230;2023-07-31T06:57:44;2.15;;;0.90;;
27412;SDS011;14871;52.702;5.230;2023-07-31T07:00:10;3.35;;;1.15;;
27412;SDS011;14871;52.702;5.230;2023-07-31T07:02:36;2.25;;;0.60;;
27412;SDS011;14871;52.702;5.230;2023-07-31T07:05:01;2.88;;;1.17;;
27412;SDS011;14871;52.702;5.230;2023-07-31T07:07:27;3.42;;;0.98;;
27412;SDS011;14871;52.702;5.230;2023-07-31T07:09:53;4.10;;;0.85;;
27412;SDS011;14871;52.702;5.230;2023-07-31T07:12:18;3.53;;;1.20;;
27412;SDS011;14871;52.702;5.230;2023-07-31T07:14:44;3.53;;;1.27;;
27412;SDS011;14871;52.702;5.230;2023-07-31T07:17:12;4.80;;;1.90;;
27412;SDS011;14871;52.702;5.230;2023-07-31T07:19:40;5.38;;;1.23;;
27412;SDS011;14871;52.702;5.230;2023-07-31T07:22:07;7.15;;;1.88;;
27412;SDS011;14871;52.702;5.230;2023-07-31T07:24:32;6.13;;;1.83;;
27412;SDS011;14871;52.702;5.230;2023-07-31T07:26:58;9.23;;;1.90;;
27412;SDS011;14871;52.702;5.230;2023-07-31T07:29:23;7.68;;;1.27;;
27412;SDS011;14871;52.702;5.230;2023-07-31T07:31:49;7.18;;;1.70;;
27412;SDS011;14871;52.702;5.230;2023-07-31T07:34:15;4.72;;;1.35;;
27412;SDS011;14871;52.702;5.230;2023-07-31T07:36:40;6.05;;;1.58;;
27412;SDS011;14871;52.702;5.230;2023-07-31T07:39:06;4.53;;;1.25;;
27412;SDS011;14871;52.702;5.230;2023-07-31T07:41:31;5.70;;;1.40;;
27412;SDS011;14871;52.702;5.230;2023-07-31T07:43:57;3.47;;;1.25;;
27412;SDS011;14871;52.702;5.230;2023-07-31T07:46:22;3.72;;;1.50;;
27412;SDS011;14871;52.702;5.230;2023-07-31T07:48:48;3.70;;;1.25;;
27412;SDS011;14871;52.702;5.230;2023-07-31T07:51:13;6.93;;;1.70;;
27412;SDS011;14871;52.702;5.230;2023-07-31T07:53:39;3.70;;;1.23;;
27412;SDS011;14871;52.702;5.230;2023-07-31T07:56:05;7.00;;;1.20;;
27412;SDS011;14871;52.702;5.230;2023-07-31T07:58:30;4.00;;;1.10;;
27412;SDS011;14871;52.702;5.230;2023-07-31T08:00:56;5.97;;;1.15;;
27412;SDS011;14871;52.702;5.230;2023-07-31T08:03:21;8.05;;;1.25;;
27412;SDS011;14871;52.702;5.230;2023-07-31T08:05:47;5.07;;;0.80;;
27412;SDS011;14871;52.702;5.230;2023-07-31T08:08:16;3.08;;;0.85;;
27412;SDS011;14871;52.702;5.230;2023-07-31T08:10:42;4.65;;;0.90;;
27412;SDS011;14871;52.702;5.230;2023-07-31T08:13:09;4.90;;;0.60;;
27412;SDS011;14871;52.702;5.230;2023-07-31T08:15:36;3.33;;;0.68;;
27412;SDS011;14871;52.702;5.230;2023-07-31T08:18:01;4.05;;;0.57;;
27412;SDS011;14871;52.702;5.230;2023-07-31T08:20:27;8.88;;;1.17;;
27412;SDS011;14871;52.702;5.230;2023-07-31T08:22:52;2.40;;;0.80;;
27412;SDS011;14871;52.702;5.230;2023-07-31T08:25:18;1.85;;;0.80;;
27412;SDS011;14871;52.702;5.230;2023-07-31T08:27:44;1.48;;;0.68;;
27412;SDS011;14871;52.702;5.230;2023-07-31T08:30:11;2.47;;;0.75;;
27412;SDS011;14871;52.702;5.230;2023-07-31T08:32:37;4.03;;;1.27;;
27412;SDS011;14871;52.702;5.230;2023-07-31T08:35:02;3.00;;;0.80;;
27412;SDS011;14871;52.702;5.230;2023-07-31T08:37:29;3.47;;;1.05;;
27412;SDS011;14871;52.702;5.230;2023-07-31T08:39:54;4.88;;;1.48;;
27412;SDS011;14871;52.702;5.230;2023-07-31T08:42:20;4.15;;;1.10;;
27412;SDS011;14871;52.702;5.230;2023-07-31T08:44:46;6.43;;;1.30;;
27412;SDS011;14871;52.702;5.230;2023-07-31T08:47:12;4.50;;;1.30;;
27412;SDS011;14871;52.702;5.230;2023-07-31T08:49:38;4.25;;;1.13;;
27412;SDS011;14871;52.702;5.230;2023-07-31T08:52:06;5.45;;;1.33;;
27412;SDS011;14871;52.702;5.230;2023-07-31T08:54:32;4.90;;;1.25;;
27412;SDS011;14871;52.702;5.230;2023-07-31T08:56:58;5.82;;;1.23;;
27412;SDS011;14871;52.702;5.230;2023-07-31T08:59:25;4.85;;;1.67;;
27412;SDS011;14871;52.702;5.230;2023-07-31T09:01:54;10.25;;;1.70;;
27412;SDS011;14871;52.702;5.230;2023-07-31T09:04:22;5.28;;;1.33;;
27412;SDS011;14871;52.702;5.230;2023-07-31T09:06:49;9.68;;;1.85;;
27412;SDS011;14871;52.702;5.230;2023-07-31T09:09:19;8.75;;;2.00;;
27412;SDS011;14871;52.702;5.230;2023-07-31T09:11:45;7.38;;;1.70;;
27412;SDS011;14871;52.702;5.230;2023-07-31T09:14:11;9.52;;;2.58;;
27412;SDS011;14871;52.702;5.230;2023-07-31T09:16:51;8.38;;;1.70;;
27412;SDS011;14871;52.702;5.230;2023-07-31T09:19:32;8.25;;;2.03;;
27412;SDS011;14871;52.702;5.230;2023-07-31T09:21:59;7.53;;;1.55;;
27412;SDS011;14871;52.702;5.230;2023-07-31T09:24:25;4.07;;;1.23;;
27412;SDS011;14871;52.702;5.230;2023-07-31T09:26:56;5.55;;;1.30;;
27412;SDS011;14871;52.702;5.230;2023-07-31T09:29:23;5.85;;;1.23;;
27412;SDS011;14871;52.702;5.230;2023-07-31T09:31:50;4.45;;;1.30;;
27412;SDS011;14871;52.702;5.230;2023-07-31T09:34:15;4.47;;;1.40;;
27412;SDS011;14871;52.702;5.230;2023-07-31T09:39:14;7.10;;;1.67;;
27412;SDS011;14871;52.702;5.230;2023-07-31T09:41:44;6.40;;;1.90;;
27412;SDS011;14871;52.702;5.230;2023-07-31T09:44:11;3.75;;;1.20;;
27412;SDS011;14871;52.702;5.230;2023-07-31T09:46:37;6.13;;;1.10;;
27412;SDS011;14871;52.702;5.230;2023-07-31T09:49:10;5.30;;;1.50;;
27412;SDS011;14871;52.702;5.230;2023-07-31T09:51:37;9.77;;;1.80;;
27412;SDS011;14871;52.702;5.230;2023-07-31T09:54:13;5.50;;;1.70;;
27412;SDS011;14871;52.702;5.230;2023-07-31T09:56:45;7.63;;;1.75;;
27412;SDS011;14871;52.702;5.230;2023-07-31T09:59:12;7.63;;;1.88;;
27412;SDS011;14871;52.702;5.230;2023-07-31T10:01:39;4.15;;;1.50;;
27412;SDS011;14871;52.702;5.230;2023-07-31T10:04:07;9.02;;;1.80;;
27412;SDS011;14871;52.702;5.230;2023-07-31T10:06:37;8.07;;;1.73;;
27412;SDS011;14871;52.702;5.230;2023-07-31T10:09:07;7.03;;;2.30;;
27412;SDS011;14871;52.702;5.230;2023-07-31T10:11:42;8.90;;;1.90;;
27412;SDS011;14871;52.702;5.230;2023-07-31T10:14:21;11.50;;;1.77;;
27412;SDS011;14871;52.702;5.230;2023-07-31T10:16:48;8.68;;;1.67;;
27412;SDS011;14871;52.702;5.230;2023-07-31T10:19:15;8.40;;;1.88;;
27412;SDS011;14871;52.702;5.230;2023-07-31T10:21:42;6.40;;;1.65;;
27412;SDS011;14871;52.702;5.230;2023-07-31T10:24:09;7.93;;;1.85;;
27412;SDS011;14871;52.702;5.230;2023-07-31T10:26:34;8.93;;;1.60;;
27412;SDS011;14871;52.702;5.230;2023-07-31T10:29:02;6.75;;;1.95;;
27412;SDS011;14871;52.702;5.230;2023-07-31T10:31:29;9.98;;;2.33;;
27412;SDS011;14871;52.702;5.230;2023-07-31T10:33:58;12.05;;;2.45;;
27412;SDS011;14871;52.702;5.230;2023-07-31T10:36:25;9.88;;;2.38;;
27412;SDS011;14871;52.702;5.230;2023-07-31T10:38:52;11.25;;;2.63;;
27412;SDS011;14871;52.702;5.230;2023-07-31T10:41:18;7.57;;;2.22;;
27412;SDS011;14871;52.702;5.230;2023-07-31T10:43:45;6.53;;;1.83;;
27412;SDS011;14871;52.702;5.230;2023-07-31T10:46:12;5.15;;;1.27;;
27412;SDS011;14871;52.702;5.230;2023-07-31T10:48:39;5.28;;;1.35;;
27412;SDS011;14871;52.702;5.230;2023-07-31T10:51:09;6.00;;;1.88;;
27412;SDS011;14871;52.702;5.230;2023-07-31T10:53:37;10.40;;;1.88;;
27412;SDS011;14871;52.702;5.230;2023-07-31T10:56:13;5.35;;;1.83;;
27412;SDS011;14871;52.702;5.230;2023-07-31T10:58:43;7.03;;;1.98;;
27412;SDS011;14871;52.702;5.230;2023-07-31T11:01:11;5.72;;;1.75;;
27412;SDS011;14871;52.702;5.230;2023-07-31T11:03:46;11.10;;;2.72;;
27412;SDS011;14871;52.702;5.230;2023-07-31T11:06:14;12.48;;;2.65;;
27412;SDS011;14871;52.702;5.230;2023-07-31T11:08:41;9.93;;;2.55;;
27412;SDS011;14871;52.702;5.230;2023-07-31T11:11:15;8.75;;;2.30;;
27412;SDS011;14871;52.702;5.230;2023-07-31T11:13:47;12.27;;;2.40;;
27412;SDS011;14871;52.702;5.230;2023-07-31T11:16:14;9.13;;;2.30;;
27412;SDS011;14871;52.702;5.230;2023-07-31T11:18:41;8.60;;;2.10;;
27412;SDS011;14871;52.702;5.230;2023-07-31T11:21:17;7.13;;;1.90;;
27412;SDS011;14871;52.702;5.230;2023-07-31T11:23:48;7.65;;;2.20;;
27412;SDS011;14871;52.702;5.230;2023-07-31T11:26:15;10.30;;;2.13;;
27412;SDS011;14871;52.702;5.230;2023-07-31T11:28:42;13.27;;;2.83;;
27412;SDS011;14871;52.702;5.230;2023-07-31T11:31:09;12.13;;;2.85;;
27412;SDS011;14871;52.702;5.230;2023-07-31T11:33:35;5.80;;;2.33;;
27412;SDS011;14871;52.702;5.230;2023-07-31T11:36:01;7.68;;;2.05;;
27412;SDS011;14871;52.702;5.230;2023-07-31T11:38:28;7.75;;;2.38;;
27412;SDS011;14871;52.702;5.230;2023-07-31T11:40:58;6.50;;;2.35;;
27412;SDS011;14871;52.702;5.230;2023-07-31T11:43:29;8.37;;;2.37;;
27412;SDS011;14871;52.702;5.230;2023-07-31T11:45:57;5.05;;;1.75;;
27412;SDS011;14871;52.702;5.230;2023-07-31T11:48:24;8.52;;;2.55;;
27412;SDS011;14871;52.702;5.230;2023-07-31T11:50:52;11.65;;;2.08;;
27412;SDS011;14871;52.702;5.230;2023-07-31T11:53:25;6.97;;;1.77;;
27412;SDS011;14871;52.702;5.230;2023-07-31T11:56:12;11.48;;;2.08;;
27412;SDS011;14871;52.702;5.230;2023-07-31T11:58:39;9.23;;;2.13;;
27412;SDS011;14871;52.702;5.230;2023-07-31T12:01:08;8.27;;;2.20;;
27412;SDS011;14871;52.702;5.230;2023-07-31T12:03:33;9.68;;;2.55;;
27412;SDS011;14871;52.702;5.230;2023-07-31T12:06:00;6.97;;;2.03;;
27412;SDS011;14871;52.702;5.230;2023-07-31T12:08:26;7.13;;;2.17;;
27412;SDS011;14871;52.702;5.230;2023-07-31T12:10:52;12.35;;;3.05;;
27412;SDS011;14871;52.702;5.230;2023-07-31T12:13:23;8.50;;;2.72;;
27412;SDS011;14871;52.702;5.230;2023-07-31T12:15:58;12.35;;;3.35;;
27412;SDS011;14871;52.702;5.230;2023-07-31T12:18:25;9.80;;;2.88;;
27412;SDS011;14871;52.702;5.230;2023-07-31T12:20:56;13.05;;;2.97;;
27412;SDS011;14871;52.702;5.230;2023-07-31T12:23:23;6.10;;;2.45;;
27412;SDS011;14871;52.702;5.230;2023-07-31T12:26:00;11.68;;;3.22;;
27412;SDS011;14871;52.702;5.230;2023-07-31T12:28:27;10.98;;;2.95;;
27412;SDS011;14871;52.702;5.230;2023-07-31T12:30:56;9.30;;;3.10;;
27412;SDS011;14871;52.702;5.230;2023-07-31T12:33:30;10.85;;;3.35;;
27412;SDS011;14871;52.702;5.230;2023-07-31T12:35:57;16.02;;;4.70;;
27412;SDS011;14871;52.702;5.230;2023-07-31T12:38:25;12.52;;;3.40;;
27412;SDS011;14871;52.702;5.230;2023-07-31T12:40:51;8.18;;;3.13;;
27412;SDS011;14871;52.702;5.230;2023-07-31T12:43:17;11.18;;;3.65;;
27412;SDS011;14871;52.702;5.230;2023-07-31T12:45:42;7.80;;;3.30;;
27412;SDS011;14871;52.702;5.230;2023-07-31T12:48:08;8.02;;;3.05;;
27412;SDS011;14871;52.702;5.230;2023-07-31T12:50:35;12.32;;;3.70;;
27412;SDS011;14871;52.702;5.230;2023-07-31T12:53:04;9.73;;;3.30;;
27412;SDS011;14871;52.702;5.230;2023-07-31T12:55:30;9.50;;;4.35;;
27412;SDS011;14871;52.702;5.230;2023-07-31T12:57:56;10.95;;;2.75;;
27412;SDS011;14871;52.702;5.230;2023-07-31T13:00:22;9.93;;;3.33;;
27412;SDS011;14871;52.702;5.230;2023-07-31T13:02:48;8.23;;;2.70;;
27412;SDS011;14871;52.702;5.230;2023-07-31T13:05:13;6.57;;;3.10;;
27412;SDS011;14871;52.702;5.230;2023-07-31T13:07:40;9.35;;;3.33;;
27412;SDS011;14871;52.702;5.230;2023-07-31T13:10:06;12.27;;;3.13;;
27412;SDS011;14871;52.702;5.230;2023-07-31T13:12:32;10.75;;;4.53;;
27412;SDS011;14871;52.702;5.230;2023-07-31T13:14:58;14.80;;;3.20;;
27412;SDS011;14871;52.702;5.230;2023-07-31T13:17:23;12.27;;;2.80;;
27412;SDS011;14871;52.702;5.230;2023-07-31T13:19:52;7.65;;;2.70;;
27412;SDS011;14871;52.702;5.230;2023-07-31T13:22:18;8.18;;;2.75;;
27412;SDS011;14871;52.702;5.230;2023-07-31T13:24:43;11.48;;;2.67;;
27412;SDS011;14871;52.702;5.230;2023-07-31T13:27:09;7.70;;;2.28;;
27412;SDS011;14871;52.702;5.230;2023-07-31T13:29:34;9.88;;;2.83;;
27412;SDS011;14871;52.702;5.230;2023-07-31T13:32:00;7.68;;;2.67;;
27412;SDS011;14871;52.702;5.230;2023-07-31T13:34:26;10.15;;;2.58;;
27412;SDS011;14871;52.702;5.230;2023-07-31T13:36:53;10.40;;;2.92;;
27412;SDS011;14871;52.702;5.230;2023-07-31T13:39:20;9.18;;;2.70;;
27412;SDS011;14871;52.702;5.230;2023-07-31T13:41:46;7.18;;;2.35;;
27412;SDS011;14871;52.702;5.230;2023-07-31T13:44:12;10.10;;;2.75;;
27412;SDS011;14871;52.702;5.230;2023-07-31T13:46:38;6.55;;;2.20;;
27412;SDS011;14871;52.702;5.230;2023-07-31T13:49:03;9.95;;;2.60;;
27412;SDS011;14871;52.702;5.230;2023-07-31T13:51:29;10.07;;;2.88;;
27412;SDS011;14871;52.702;5.230;2023-07-31T13:53:55;11.15;;;3.70;;
27412;SDS011;14871;52.702;5.230;2023-07-31T13:56:20;10.65;;;2.55;;
27412;SDS011;14871;52.702;5.230;2023-07-31T13:58:46;9.75;;;2.80;;
27412;SDS011;14871;52.702;5.230;2023-07-31T14:01:12;7.10;;;2.40;;
27412;SDS011;14871;52.702;5.230;2023-07-31T14:03:37;9.38;;;2.53;;
27412;SDS011;14871;52.702;5.230;2023-07-31T14:06:03;7.57;;;2.67;;
27412;SDS011;14871;52.702;5.230;2023-07-31T14:08:29;10.70;;;2.65;;
27412;SDS011;14871;52.702;5.230;2023-07-31T14:10:55;6.88;;;2.38;;
27412;SDS011;14871;52.702;5.230;2023-07-31T14:13:20;6.93;;;2.35;;
27412;SDS011;14871;52.702;5.230;2023-07-31T14:15:46;6.80;;;2.28;;
27412;SDS011;14871;52.702;5.230;2023-07-31T14:18:12;6.82;;;2.45;;
27412;SDS011;14871;52.702;5.230;2023-07-31T14:20:37;6.93;;;2.35;;
27412;SDS011;14871;52.702;5.230;2023-07-31T14:23:03;6.25;;;1.90;;
27412;SDS011;14871;52.702;5.230;2023-07-31T14:25:30;10.07;;;2.45;;
27412;SDS011;14871;52.702;5.230;2023-07-31T14:27:55;8.68;;;2.40;;
27412;SDS011;14871;52.702;5.230;2023-07-31T14:30:21;6.53;;;2.10;;
27412;SDS011;14871;52.702;5.230;2023-07-31T14:32:47;8.68;;;2.17;;
27412;SDS011;14871;52.702;5.230;2023-07-31T14:35:12;11.52;;;2.70;;
27412;SDS011;14871;52.702;5.230;2023-07-31T14:37:39;8.32;;;2.13;;
27412;SDS011;14871;52.702;5.230;2023-07-31T14:40:06;8.02;;;1.98;;
27412;SDS011;14871;52.702;5.230;2023-07-31T14:42:34;4.80;;;1.65;;
27412;SDS011;14871;52.702;5.230;2023-07-31T14:45:00;7.25;;;2.22;;
27412;SDS011;14871;52.702;5.230;2023-07-31T14:47:26;7.85;;;2.22;;